Time;durP1;ratioP1;P1;durP2;ratioP2;P2;SDS_P1;SDS_P2;PMS_P1;PMS_P2;Temp;Humidity;BMP_temperature;BMP_pressure;BME280_temperature;BME280_humidity;BME280_pressure;Samples;Min_cycle;Max_cycle;Signal;HPM_P1;HPM_P2
2023/10/17 00:01:54;;;;;;;7.47;4.55;;;11.30;60.20;;;;;;5008888;28;20040;-78
2023/10/17 00:06:47;;;;;;;4.20;3.88;;;11.30;60.40;;;;;;5003680;28;20051;-79
2023/10/17 00:09:24;;;;;;;6.32;4.57;;;11.30;60.50;;;;;;5017779;28;20077;-78
2023/10/17 00:14:27;;;;;;;5.10;4.30;;;11.30;60.60;;;;;;5018689;28;20033;-79
2023/10/17 00:16:55;;;;;;;6.68;4.30;;;11.30;60.60;;;;;;5016073;28;20041;-78
2023/10/17 00:19:31;;;;;;;5.35;4.38;;;11.30;60.60;;;;;;5015114;28;20041;-79
2023/10/17 00:22:03;;;;;;;5.72;4.78;;;11.30;60.70;;;;;;5033425;28;20057;-79
2023/10/17 00:24:33;;;;;;;5.65;3.70;;;11.30;60.70;;;;;;5005080;28;20446;-78
2023/10/17 00:27:02;;;;;;;6.22;4.30;;;11.30;60.70;;;;;;5018397;28;20128;-78
2023/10/17 00:29:28;;;;;;;4.40;3.95;;;11.30;60.80;;;;;;5001438;28;20460;-79
2023/10/17 00:31:55;;;;;;;5.20;4.15;;;11.30;60.90;;;;;;5016878;28;20037;-78
2023/10/17 00:34:23;;;;;;;5.72;3.78;;;11.30;61.00;;;;;;5012674;28;20481;-78
2023/10/17 00:36:49;;;;;;;6.82;4.43;;;11.30;61.00;;;;;;5017285;28;20044;-78
2023/10/17 00:39:29;;;;;;;8.90;4.22;;;11.30;61.00;;;;;;5017257;28;20055;-78
2023/10/17 00:44:41;;;;;;;6.60;4.43;;;11.30;61.10;;;;;;5015471;28;20485;-78
2023/10/17 00:47:11;;;;;;;5.85;3.88;;;11.30;61.20;;;;;;5013571;28;20065;-79
2023/10/17 00:49:44;;;;;;;6.00;3.78;;;11.30;61.20;;;;;;5018207;28;20191;-79
2023/10/17 00:52:24;;;;;;;5.93;4.25;;;11.30;61.20;;;;;;5011642;28;20091;-79
2023/10/17 00:54:53;;;;;;;5.30;3.90;;;11.30;61.30;;;;;;5017894;28;20033;-78
2023/10/17 00:57:26;;;;;;;5.15;3.80;;;11.30;61.90;;;;;;5024921;28;20140;-79
2023/10/17 00:59:57;;;;;;;5.10;4.15;;;11.40;61.50;;;;;;5017868;28;20041;-79
2023/10/17 01:02:24;;;;;;;5.53;3.78;;;11.30;61.40;;;;;;5008665;28;20163;-79
2023/10/17 01:04:51;;;;;;;5.95;4.20;;;11.30;61.40;;;;;;4998212;28;20052;-79
2023/10/17 01:07:26;;;;;;;4.15;3.72;;;11.30;61.50;;;;;;5014842;28;20155;-79
2023/10/17 01:10:00;;;;;;;4.13;3.72;;;11.30;61.50;;;;;;4996109;28;20037;-79
2023/10/17 01:12:28;;;;;;;5.35;4.07;;;11.30;61.50;;;;;;5016391;28;20037;-79
2023/10/17 01:14:55;;;;;;;5.22;3.90;;;11.40;61.70;;;;;;5018614;28;20072;-79
2023/10/17 01:17:24;;;;;;;5.35;3.63;;;11.30;61.60;;;;;;5016902;28;20030;-79
2023/10/17 01:19:58;;;;;;;5.45;3.70;;;11.30;61.70;;;;;;5000288;28;20544;-78
2023/10/17 01:22:24;;;;;;;6.70;4.95;;;11.30;61.70;;;;;;5011137;28;20486;-79
2023/10/17 01:24:51;;;;;;;6.97;4.82;;;11.30;61.80;;;;;;5003532;28;20140;-79
2023/10/17 01:27:17;;;;;;;4.95;3.70;;;11.30;61.80;;;;;;4998905;28;20749;-79
2023/10/17 01:29:44;;;;;;;5.57;3.85;;;11.30;61.90;;;;;;5015510;28;20464;-78
2023/10/17 01:32:11;;;;;;;6.70;4.40;;;11.30;61.90;;;;;;5021368;28;20064;-78
2023/10/17 01:34:37;;;;;;;6.00;4.18;;;11.30;62.00;;;;;;5014927;28;20106;-77
2023/10/17 01:37:07;;;;;;;9.00;4.60;;;11.20;61.90;;;;;;5009811;28;20120;-79
2023/10/17 01:39:34;;;;;;;5.00;4.20;;;11.30;62.10;;;;;;5016009;28;20365;-80
2023/10/17 01:42:00;;;;;;;6.47;4.63;;;11.30;62.10;;;;;;5019479;28;20473;-79
2023/10/17 01:44:26;;;;;;;9.60;4.43;;;11.20;62.00;;;;;;5012993;28;20026;-79
2023/10/17 01:46:52;;;;;;;6.70;4.60;;;11.20;62.10;;;;;;5019579;28;20393;-79
2023/10/17 01:49:19;;;;;;;5.15;4.05;;;11.20;62.10;;;;;;5013652;28;20495;-79
2023/10/17 01:51:49;;;;;;;5.60;4.18;;;11.20;62.20;;;;;;5015709;28;20037;-77
2023/10/17 01:54:16;;;;;;;6.55;4.85;;;11.20;62.20;;;;;;5010161;28;20118;-79
2023/10/17 01:56:49;;;;;;;5.43;4.80;;;11.20;62.30;;;;;;5015586;28;20033;-78
2023/10/17 01:59:23;;;;;;;6.75;5.22;;;11.20;62.30;;;;;;5031141;28;20041;-79
2023/10/17 02:01:49;;;;;;;7.40;4.82;;;11.20;62.30;;;;;;5017266;28;20035;-78
2023/10/17 02:04:18;;;;;;;6.22;5.30;;;11.20;62.30;;;;;;5019223;28;20029;-78
2023/10/17 02:06:47;;;;;;;7.85;5.25;;;11.20;62.40;;;;;;5012947;28;20287;-78
2023/10/17 02:11:54;;;;;;;5.57;4.78;;;11.30;62.70;;;;;;5014055;28;20463;-78
2023/10/17 02:14:23;;;;;;;7.03;5.15;;;11.20;62.50;;;;;;4994274;28;20064;-79
2023/10/17 02:16:49;;;;;;;6.45;4.95;;;11.20;62.60;;;;;;5014962;28;20026;-78
2023/10/17 02:19:19;;;;;;;6.70;5.20;;;11.20;62.60;;;;;;5011730;28;20397;-78
2023/10/17 02:21:50;;;;;;;8.32;5.97;;;11.20;62.60;;;;;;5018557;28;20068;-79
2023/10/17 02:24:22;;;;;;;6.78;5.53;;;11.20;62.70;;;;;;5010156;28;20140;-79
2023/10/17 02:27:08;;;;;;;6.75;5.28;;;11.20;62.70;;;;;;5009874;28;20052;-79
2023/10/17 02:29:39;;;;;;;8.52;6.00;;;11.20;62.80;;;;;;5015383;28;20022;-79
2023/10/17 02:32:11;;;;;;;7.95;4.90;;;11.20;62.80;;;;;;5013699;28;20681;-79
2023/10/17 02:34:38;;;;;;;7.25;5.38;;;11.20;62.80;;;;;;5013205;28;20061;-79
2023/10/17 02:37:06;;;;;;;6.40;5.75;;;11.10;62.60;;;;;;5008359;28;20120;-80
2023/10/17 02:39:37;;;;;;;12.35;6.00;;;11.20;62.90;;;;;;5010441;28;20405;-78
2023/10/17 02:42:08;;;;;;;6.93;5.75;;;11.20;62.90;;;;;;5013915;28;20025;-78
2023/10/17 02:44:43;;;;;;;6.97;5.80;;;11.10;62.80;;;;;;5012853;28;20079;-79
2023/10/17 02:47:13;;;;;;;7.15;5.40;;;11.10;62.80;;;;;;5009778;28;20049;-79
2023/10/17 02:49:40;;;;;;;8.48;5.68;;;11.10;62.80;;;;;;5010206;28;20026;-79
2023/10/17 02:52:06;;;;;;;6.15;5.47;;;11.10;62.90;;;;;;5013164;28;20073;-78
2023/10/17 02:54:48;;;;;;;8.00;5.70;;;11.20;63.10;;;;;;5014467;28;20026;-79
2023/10/17 02:57:16;;;;;;;6.65;5.60;;;11.20;63.20;;;;;;5008059;28;20045;-78
2023/10/17 02:59:45;;;;;;;7.30;5.53;;;11.20;63.10;;;;;;5014301;28;20436;-78
2023/10/17 03:02:11;;;;;;;7.00;6.07;;;11.20;63.20;;;;;;5010171;28;20388;-78
2023/10/17 03:04:42;;;;;;;7.85;6.00;;;11.20;63.20;;;;;;5019404;28;20509;-78
2023/10/17 03:07:11;;;;;;;6.55;5.50;;;11.10;63.00;;;;;;5021820;28;20075;-78
2023/10/17 03:09:43;;;;;;;8.68;5.95;;;11.20;63.30;;;;;;5020511;28;20029;-79
2023/10/17 03:12:17;;;;;;;6.90;5.88;;;11.20;63.30;;;;;;5014213;28;20060;-79
2023/10/17 03:17:15;;;;;;;6.82;6.13;;;11.10;63.10;;;;;;5008076;28;20057;-80
2023/10/17 03:19:41;;;;;;;7.65;5.93;;;11.20;63.30;;;;;;5043062;28;20466;-79
2023/10/17 03:22:18;;;;;;;8.32;6.22;;;11.10;63.20;;;;;;5010289;28;20444;-78
2023/10/17 03:24:46;;;;;;;10.00;5.53;;;11.10;63.20;;;;;;5014626;28;20125;-79
2023/10/17 03:30:11;;;;;;;7.63;5.93;;;11.20;63.50;;;;;;4994785;28;20038;-79
2023/10/17 03:32:52;;;;;;;6.95;6.18;;;11.20;63.50;;;;;;5011847;28;20351;-79
2023/10/17 03:35:21;;;;;;;7.25;5.75;;;11.20;63.50;;;;;;5010329;28;20149;-79
2023/10/17 03:37:49;;;;;;;6.75;5.75;;;11.10;63.40;;;;;;5015328;28;20052;-78
2023/10/17 03:40:18;;;;;;;6.18;5.55;;;11.10;63.40;;;;;;5006720;28;20076;-79
2023/10/17 03:42:46;;;;;;;7.60;6.40;;;11.10;63.40;;;;;;5012069;28;20060;-79
2023/10/17 03:45:17;;;;;;;7.43;5.45;;;11.10;63.50;;;;;;5007658;28;20025;-77
2023/10/17 03:47:49;;;;;;;6.65;5.07;;;11.10;63.50;;;;;;5010626;28;20452;-78
2023/10/17 03:50:31;;;;;;;7.05;6.00;;;11.10;63.50;;;;;;5009743;28;20017;-79
2023/10/17 03:53:14;;;;;;;8.07;5.28;;;11.10;63.80;;;;;;5010196;28;20421;-81
2023/10/17 03:55:45;;;;;;;7.18;5.20;;;11.10;63.60;;;;;;5010291;28;20044;-79
2023/10/17 04:00:54;;;;;;;6.30;5.30;;;11.10;63.60;;;;;;5008372;28;20113;-79
2023/10/17 04:03:31;;;;;;;7.20;5.40;;;11.10;63.60;;;;;;5036119;28;20414;-78
2023/10/17 04:06:02;;;;;;;6.88;5.07;;;11.10;63.70;;;;;;5033138;28;20136;-77
2023/10/17 04:08:34;;;;;;;6.28;5.50;;;11.10;63.70;;;;;;5008071;28;20036;-78
2023/10/17 04:13:51;;;;;;;7.20;5.35;;;11.10;63.80;;;;;;5008890;28;20157;-78
2023/10/17 04:16:33;;;;;;;10.00;5.78;;;11.10;63.80;;;;;;5042506;28;20041;-79
2023/10/17 04:19:00;;;;;;;6.75;5.47;;;11.20;63.90;;;;;;5006087;28;20347;-79
2023/10/17 04:21:29;;;;;;;7.60;5.15;;;11.10;63.80;;;;;;5016387;28;20492;-79
2023/10/17 04:24:04;;;;;;;6.53;5.18;;;11.20;64.00;;;;;;5014129;28;20018;-78
2023/10/17 04:26:35;;;;;;;7.10;5.15;;;11.10;63.80;;;;;;5007983;28;20041;-78
2023/10/17 04:29:11;;;;;;;6.15;4.88;;;11.10;63.80;;;;;;5011381;28;20064;-79
2023/10/17 04:31:43;;;;;;;7.85;5.90;;;11.10;63.80;;;;;;5007359;28;20033;-79
2023/10/17 04:34:18;;;;;;;7.28;4.72;;;11.10;63.80;;;;;;5014297;28;20496;-79
2023/10/17 04:36:44;;;;;;;6.90;5.25;;;11.10;63.80;;;;;;5019378;28;20033;-78
2023/10/17 04:39:25;;;;;;;6.22;5.05;;;11.20;64.00;;;;;;5013463;28;20121;-79
2023/10/17 04:44:20;;;;;;;6.57;4.97;;;11.20;64.00;;;;;;5015432;28;20045;-78
2023/10/17 04:46:50;;;;;;;6.75;5.40;;;11.10;63.80;;;;;;5017206;28;20404;-78
2023/10/17 04:49:18;;;;;;;7.60;5.32;;;11.20;64.00;;;;;;5017433;28;20083;-79
2023/10/17 04:51:45;;;;;;;6.85;4.70;;;11.20;64.00;;;;;;4995978;28;20117;-79
2023/10/17 04:54:38;;;;;;;5.85;5.10;;;11.20;64.00;;;;;;5026593;28;20056;-78
2023/10/17 04:57:06;;;;;;;7.05;5.38;;;11.20;64.00;;;;;;5010590;28;20037;-78
2023/10/17 06:18:59;;;;;;;7.95;4.18;;;11.20;64.70;;;;;;5012977;28;20084;-75
2023/10/17 06:27:09;;;;;;;7.53;4.38;;;11.20;64.20;;;;;;5032845;28;20041;-77
2023/10/17 06:32:48;;;;;;;4.28;3.22;;;11.20;64.10;;;;;;5020277;28;20034;-77
2023/10/17 06:35:20;;;;;;;5.55;3.70;;;11.20;64.20;;;;;;5010456;28;20041;-76
2023/10/17 06:37:49;;;;;;;7.03;3.40;;;11.20;64.20;;;;;;5016722;28;20091;-76
2023/10/17 06:40:16;;;;;;;4.97;3.47;;;11.20;64.20;;;;;;5005919;28;20025;-75
2023/10/17 06:42:49;;;;;;;8.15;3.33;;;11.20;64.10;;;;;;5020673;28;20304;-76
2023/10/17 06:45:19;;;;;;;5.80;3.17;;;11.20;64.20;;;;;;5020380;28;20040;-77
2023/10/17 06:47:49;;;;;;;5.28;3.38;;;11.20;64.10;;;;;;5014874;28;20384;-76
2023/10/17 06:55:21;;;;;;;6.70;2.92;;;11.20;64.00;;;;;;5022555;28;20037;-76
2023/10/17 06:57:51;;;;;;;7.88;3.00;;;11.20;64.00;;;;;;5012935;28;20112;-78
2023/10/17 07:00:27;;;;;;;5.80;2.85;;;11.20;64.00;;;;;;5003491;28;20371;-76
2023/10/17 07:02:57;;;;;;;3.63;2.30;;;11.20;64.00;;;;;;5019802;28;20049;-77
2023/10/17 07:05:24;;;;;;;4.75;2.80;;;11.30;64.10;;;;;;5018992;28;20116;-77
2023/10/17 07:07:53;;;;;;;4.63;2.70;;;11.30;64.00;;;;;;5000547;28;20148;-77
2023/10/17 07:13:27;;;;;;;3.67;2.50;;;11.30;63.90;;;;;;5015470;28;20083;-78
2023/10/17 07:15:54;;;;;;;4.97;2.47;;;11.30;63.80;;;;;;5018356;28;20045;-77
2023/10/17 07:21:15;;;;;;;5.30;2.22;;;11.30;63.70;;;;;;5013675;28;20091;-77
2023/10/17 07:23:42;;;;;;;4.03;2.78;;;11.30;63.60;;;;;;5027688;28;20029;-78
2023/10/17 07:26:35;;;;;;;3.78;1.77;;;11.30;63.50;;;;;;5013032;28;20045;-78
2023/10/17 07:29:05;;;;;;;4.60;2.38;;;11.30;63.40;;;;;;4999781;28;20029;-78
2023/10/17 07:31:32;;;;;;;3.47;2.38;;;11.40;63.50;;;;;;5019662;28;20030;-77
2023/10/17 07:36:39;;;;;;;5.22;2.10;;;11.40;63.30;;;;;;5018361;28;20029;-78
2023/10/17 07:39:22;;;;;;;3.75;1.58;;;11.50;63.40;;;;;;5022337;28;20042;-78
2023/10/17 07:41:54;;;;;;;3.70;2.08;;;11.50;63.30;;;;;;5022292;28;20037;-78
2023/10/17 07:44:26;;;;;;;3.55;1.80;;;11.60;63.30;;;;;;5024106;28;20025;-77
2023/10/17 07:49:38;;;;;;;2.20;1.50;;;11.70;63.30;;;;;;5020972;28;20037;-78
2023/10/17 07:52:12;;;;;;;3.47;1.90;;;11.80;63.30;;;;;;5014660;28;20516;-77
2023/10/17 07:54:45;;;;;;;2.42;1.55;;;11.80;63.20;;;;;;5024459;28;20021;-77
2023/10/17 07:57:17;;;;;;;3.53;1.90;;;11.80;63.50;;;;;;5010084;28;20328;-77
2023/10/17 07:59:52;;;;;;;3.20;1.80;;;11.90;63.00;;;;;;5019475;28;20029;-78
2023/10/17 08:02:30;;;;;;;4.30;1.50;;;12.00;63.10;;;;;;5015045;28;20387;-77
2023/10/17 08:05:00;;;;;;;3.53;1.83;;;12.00;62.90;;;;;;5016575;28;20042;-78
2023/10/17 08:07:29;;;;;;;2.30;1.30;;;12.10;62.90;;;;;;5018738;28;20033;-78
2023/10/17 08:09:58;;;;;;;3.25;1.90;;;12.20;63.40;;;;;;5013118;28;20425;-77
2023/10/17 08:12:24;;;;;;;6.38;2.25;;;12.20;62.70;;;;;;5047021;28;20440;-78
2023/10/17 08:15:18;;;;;;;2.83;1.55;;;12.20;62.60;;;;;;5020073;28;20624;-78
2023/10/17 08:17:45;;;;;;;3.47;1.35;;;12.30;62.60;;;;;;5020154;28;20043;-77
2023/10/17 08:22:54;;;;;;;3.35;1.75;;;12.40;62.40;;;;;;5021540;28;20039;-78
2023/10/17 08:25:32;;;;;;;3.30;2.13;;;12.50;62.40;;;;;;5022313;28;20033;-78
2023/10/17 08:28:04;;;;;;;5.35;2.15;;;12.60;62.50;;;;;;5014413;28;20619;-77
2023/10/17 08:30:38;;;;;;;4.38;2.35;;;12.70;62.50;;;;;;5018668;28;20116;-78
2023/10/17 08:35:38;;;;;;;5.00;2.45;;;12.80;62.20;;;;;;5017690;28;20032;-79
2023/10/17 08:38:12;;;;;;;5.93;2.03;;;12.90;62.20;;;;;;5014308;28;20029;-78
2023/10/17 08:43:14;;;;;;;3.60;2.22;;;13.00;62.10;;;;;;5013428;28;20033;-78
2023/10/17 08:45:41;;;;;;;6.28;2.20;;;13.00;62.00;;;;;;5022164;28;20036;-77
2023/10/17 08:48:11;;;;;;;3.78;1.95;;;13.00;61.90;;;;;;5018242;28;20033;-78
2023/10/17 08:50:37;;;;;;;3.70;3.15;;;13.10;61.90;;;;;;5017330;28;20120;-77
2023/10/17 08:53:09;;;;;;;3.65;2.00;;;13.10;61.80;;;;;;5015820;28;20032;-77
2023/10/17 08:55:39;;;;;;;4.20;2.30;;;13.10;61.70;;;;;;5012497;28;20468;-77
2023/10/17 08:58:08;;;;;;;4.55;2.38;;;13.10;61.60;;;;;;5015040;28;20033;-77
2023/10/17 09:03:24;;;;;;;5.20;2.08;;;13.10;61.40;;;;;;5005561;28;20499;-78
2023/10/17 09:05:58;;;;;;;6.85;2.65;;;13.10;61.40;;;;;;5002843;28;20045;-78
2023/10/17 09:11:15;;;;;;;2.58;1.98;;;13.20;61.40;;;;;;5010836;28;20033;-77
2023/10/17 09:16:14;;;;;;;3.33;2.45;;;13.30;61.50;;;;;;5019157;28;20018;-78
2023/10/17 09:18:54;;;;;;;5.20;2.00;;;13.30;61.40;;;;;;5021830;28;20032;-78
2023/10/17 09:21:22;;;;;;;7.53;2.53;;;13.30;61.20;;;;;;5019991;28;20037;-77
2023/10/17 09:23:48;;;;;;;5.60;2.40;;;13.30;61.20;;;;;;5025349;28;20044;-77
2023/10/17 09:26:19;;;;;;;7.72;3.05;;;13.40;61.20;;;;;;5014496;28;20049;-78
2023/10/17 09:28:47;;;;;;;4.68;2.58;;;13.40;61.00;;;;;;5022252;28;20115;-77
2023/10/17 09:31:15;;;;;;;4.75;2.22;;;13.50;61.00;;;;;;5011311;28;20041;-76
2023/10/17 09:33:52;;;;;;;5.53;2.10;;;13.60;61.00;;;;;;5020614;28;20026;-77
2023/10/17 09:36:18;;;;;;;4.68;2.20;;;13.70;61.00;;;;;;5011828;28;20454;-77
2023/10/17 09:38:45;;;;;;;4.45;2.13;;;13.70;60.80;;;;;;5018976;28;20508;-77
2023/10/17 09:41:18;;;;;;;6.50;2.95;;;13.80;60.80;;;;;;5017123;28;20739;-77
2023/10/17 09:43:49;;;;;;;5.28;2.33;;;13.90;60.70;;;;;;5020735;28;20037;-76
2023/10/17 09:46:17;;;;;;;5.32;2.58;;;14.00;60.70;;;;;;5009775;28;20087;-83
2023/10/17 09:48:46;;;;;;;5.53;2.42;;;14.10;60.70;;;;;;5004187;28;20044;-79
2023/10/17 09:51:22;;;;;;;5.30;2.58;;;14.10;60.50;;;;;;5021070;28;20247;-79
2023/10/17 09:53:58;;;;;;;4.32;2.10;;;14.30;60.60;;;;;;5024852;28;20045;-79
2023/10/17 09:56:33;;;;;;;3.55;2.30;;;14.30;60.40;;;;;;5018583;28;20039;-79
2023/10/17 09:59:03;;;;;;;3.85;2.40;;;14.40;60.30;;;;;;5020869;28;20037;-79
2023/10/17 10:01:31;;;;;;;5.10;2.38;;;14.50;60.30;;;;;;5008560;28;20508;-78
2023/10/17 10:04:01;;;;;;;3.55;2.20;;;14.60;60.30;;;;;;4998648;28;20032;-78
2023/10/17 10:06:30;;;;;;;4.90;2.05;;;14.70;60.20;;;;;;5023913;28;20224;-78
2023/10/17 10:09:23;;;;;;;3.80;2.08;;;14.80;60.10;;;;;;5022490;28;20778;-77
2023/10/17 10:11:50;;;;;;;4.78;2.45;;;14.90;59.80;;;;;;5016001;28;20051;-79
2023/10/17 10:14:35;;;;;;;5.90;3.78;;;15.00;60.00;;;;;;5004022;28;20029;-78
2023/10/17 10:17:04;;;;;;;3.95;2.30;;;15.00;59.70;;;;;;5018778;28;20714;-79
2023/10/17 10:19:42;;;;;;;3.75;2.40;;;15.10;59.60;;;;;;5013174;28;20485;-79
2023/10/17 10:22:12;;;;;;;3.55;2.17;;;15.20;59.40;;;;;;5018889;28;20033;-78
2023/10/17 10:24:40;;;;;;;4.32;2.25;;;15.30;59.40;;;;;;5028261;28;20034;-79
2023/10/17 10:27:24;;;;;;;4.00;2.50;;;15.40;59.30;;;;;;5017949;28;20044;-79
2023/10/17 10:29:54;;;;;;;4.25;2.20;;;15.40;59.00;;;;;;5016622;28;20055;-79
2023/10/17 10:32:37;;;;;;;4.03;2.10;;;15.50;58.90;;;;;;5015367;28;20491;-81
2023/10/17 10:35:05;;;;;;;5.95;2.45;;;15.50;58.60;;;;;;5011781;28;20033;-79
2023/10/17 10:37:53;;;;;;;4.57;2.17;;;15.60;58.70;;;;;;5018528;28;20199;-78
2023/10/17 10:40:30;;;;;;;3.47;2.13;;;15.70;58.70;;;;;;5018182;28;20045;-78
2023/10/17 10:43:01;;;;;;;3.75;2.05;;;15.70;58.50;;;;;;5016017;28;20045;-79
2023/10/17 10:45:35;;;;;;;3.95;2.28;;;15.70;58.30;;;;;;5025455;28;20045;-80
2023/10/17 10:48:04;;;;;;;2.95;2.45;;;15.80;58.30;;;;;;5007427;28;20046;-80
2023/10/17 10:50:34;;;;;;;4.15;2.03;;;15.80;58.10;;;;;;5016491;28;20025;-79
2023/10/17 10:53:25;;;;;;;3.13;1.88;;;15.90;58.00;;;;;;5020829;28;20496;-79
2023/10/17 10:55:56;;;;;;;3.75;2.28;;;15.90;57.70;;;;;;5010339;28;20559;-79
2023/10/17 10:58:27;;;;;;;3.38;2.25;;;16.00;58.00;;;;;;5009172;28;20037;-79
2023/10/17 11:00:58;;;;;;;3.33;2.20;;;16.10;57.90;;;;;;5014365;28;20331;-79
2023/10/17 11:03:27;;;;;;;4.35;2.58;;;16.10;57.70;;;;;;5009246;28;20546;-79
2023/10/17 11:05:55;;;;;;;6.53;2.45;;;16.20;57.60;;;;;;5013107;28;20057;-78
2023/10/17 11:08:22;;;;;;;5.15;2.22;;;16.30;57.50;;;;;;5027440;28;20053;-78
2023/10/17 11:10:49;;;;;;;3.72;2.40;;;16.40;57.40;;;;;;5009470;28;20042;-78
2023/10/17 11:13:17;;;;;;;3.80;2.30;;;16.40;57.20;;;;;;5018491;28;20068;-78
2023/10/17 11:15:45;;;;;;;2.83;1.80;;;16.50;57.80;;;;;;5018091;28;20026;-79
2023/10/17 11:18:11;;;;;;;4.25;2.08;;;16.50;56.90;;;;;;5017093;28;20393;-78
2023/10/17 11:20:41;;;;;;;5.85;1.90;;;16.50;56.70;;;;;;5019741;28;20029;-79
2023/10/17 11:23:13;;;;;;;5.82;2.00;;;16.50;56.50;;;;;;5016298;28;20040;-79
2023/10/17 11:25:45;;;;;;;5.63;2.17;;;16.50;56.40;;;;;;5018494;28;20030;-79
2023/10/17 11:28:11;;;;;;;4.18;2.30;;;16.50;56.30;;;;;;5009514;28;20037;-76
2023/10/17 11:30:40;;;;;;;4.93;1.83;;;16.50;56.20;;;;;;5010199;28;20029;-79
2023/10/17 11:33:10;;;;;;;4.45;2.42;;;16.40;56.10;;;;;;5016649;28;20033;-78
2023/10/17 11:35:45;;;;;;;2.53;1.60;;;16.40;56.20;;;;;;5015334;28;20324;-77
2023/10/17 11:38:33;;;;;;;7.25;2.20;;;16.40;56.20;;;;;;5009111;28;20075;-78
2023/10/17 11:41:01;;;;;;;3.85;2.03;;;16.40;56.00;;;;;;5014702;28;20377;-78
2023/10/17 11:43:34;;;;;;;5.43;2.03;;;16.30;55.90;;;;;;5013684;28;20542;-79
2023/10/17 11:46:03;;;;;;;2.78;2.03;;;16.30;55.90;;;;;;5017102;28;20144;-78
2023/10/17 11:48:32;;;;;;;3.97;2.50;;;16.30;55.90;;;;;;5015229;28;20635;-78
2023/10/17 11:51:17;;;;;;;5.00;1.73;;;16.20;55.60;;;;;;5013198;28;20213;-77
2023/10/17 11:54:07;;;;;;;5.60;2.33;;;16.30;55.60;;;;;;5017798;28;20178;-78
2023/10/17 11:56:39;;;;;;;2.88;1.88;;;16.30;55.40;;;;;;5014315;28;20440;-78
2023/10/17 11:59:17;;;;;;;4.00;2.20;;;16.20;55.40;;;;;;5012429;28;20421;-78
2023/10/17 12:01:45;;;;;;;2.83;2.08;;;16.20;55.30;;;;;;5011958;28;20034;-78
2023/10/17 12:04:16;;;;;;;4.70;2.40;;;16.20;55.20;;;;;;5011241;28;20570;-79
2023/10/17 12:06:51;;;;;;;3.92;2.13;;;16.30;55.40;;;;;;5011947;28;20315;-77
2023/10/17 12:09:23;;;;;;;5.30;3.13;;;16.30;55.20;;;;;;5022267;28;20087;-79
2023/10/17 12:11:51;;;;;;;3.03;1.90;;;16.40;55.40;;;;;;5012579;28;20120;-79
2023/10/17 12:14:21;;;;;;;4.95;2.15;;;16.40;55.30;;;;;;5012450;28;20559;-79
2023/10/17 12:16:53;;;;;;;3.13;1.60;;;16.40;55.20;;;;;;5011207;28;20199;-79
2023/10/17 12:19:20;;;;;;;;;;;16.40;55.20;;;;;;5010721;28;20037;-78
2023/10/17 12:21:48;;;;;;;4.38;2.05;;;16.40;55.20;;;;;;5012294;28;19932;-79
2023/10/17 12:24:19;;;;;;;3.05;2.05;;;16.40;55.30;;;;;;5017420;28;20579;-79
2023/10/17 12:26:52;;;;;;;4.50;2.75;;;16.40;55.20;;;;;;5005355;28;20038;-79
2023/10/17 12:29:19;;;;;;;3.40;2.47;;;16.30;54.80;;;;;;5009474;28;20029;-79
2023/10/17 12:31:45;;;;;;;3.10;2.25;;;16.40;54.90;;;;;;5002976;28;20645;-79
2023/10/17 12:34:18;;;;;;;3.88;2.15;;;16.40;54.80;;;;;;5015080;28;20516;-80
2023/10/17 12:36:46;;;;;;;5.80;2.40;;;16.40;54.70;;;;;;5011506;28;20605;-78
2023/10/17 12:39:16;;;;;;;4.05;2.08;;;16.40;54.70;;;;;;5017307;28;20072;-78
2023/10/17 12:41:45;;;;;;;4.10;2.33;;;16.40;54.60;;;;;;5016487;28;20033;-78
2023/10/17 12:44:12;;;;;;;3.17;1.67;;;16.40;54.50;;;;;;5016846;28;20029;-78
2023/10/17 12:46:40;;;;;;;3.47;2.08;;;16.40;54.40;;;;;;5012434;28;20037;-78
2023/10/17 12:49:10;;;;;;;4.00;2.13;;;16.40;54.30;;;;;;5017959;28;20033;-79
2023/10/17 12:51:38;;;;;;;3.85;2.13;;;16.50;54.40;;;;;;5018560;28;20037;-79
2023/10/17 12:54:06;;;;;;;3.38;2.40;;;16.50;54.30;;;;;;5011314;28;20037;-78
2023/10/17 12:56:39;;;;;;;3.92;1.80;;;16.50;54.20;;;;;;5006037;28;20045;-78
2023/10/17 12:59:12;;;;;;;4.05;1.70;;;16.50;54.00;;;;;;5010853;28;20184;-80
2023/10/17 13:01:40;;;;;;;2.65;2.45;;;16.60;54.00;;;;;;5012504;28;20103;-79
2023/10/17 13:04:07;;;;;;;2.92;1.80;;;16.70;54.10;;;;;;5013012;28;20039;-78
2023/10/17 13:06:37;;;;;;;2.40;2.00;;;16.70;53.90;;;;;;4996430;28;20156;-78
2023/10/17 13:09:04;;;;;;;4.65;1.88;;;16.70;53.70;;;;;;5017955;28;20056;-78
2023/10/17 13:11:32;;;;;;;3.60;1.80;;;16.80;53.70;;;;;;5010470;28;20415;-78
2023/10/17 13:13:59;;;;;;;4.05;2.10;;;17.00;53.90;;;;;;5019450;28;20029;-79
2023/10/17 13:16:28;;;;;;;4.22;2.17;;;17.00;53.50;;;;;;5012188;28;20034;-78
2023/10/17 13:18:57;;;;;;;5.45;2.00;;;17.10;53.50;;;;;;5016643;28;20269;-79
2023/10/17 13:21:24;;;;;;;3.53;1.83;;;17.20;53.40;;;;;;5010838;28;20044;-78
2023/10/17 13:23:51;;;;;;;2.35;1.48;;;17.30;53.40;;;;;;5021560;28;20056;-78
2023/10/17 13:26:19;;;;;;;4.75;1.88;;;17.40;53.30;;;;;;4995661;28;20141;-78
2023/10/17 13:28:46;;;;;;;4.95;1.52;;;17.40;53.00;;;;;;5016479;28;20140;-78
2023/10/17 13:31:14;;;;;;;6.80;1.80;;;17.50;52.90;;;;;;5014046;28;20128;-78
2023/10/17 13:33:49;;;;;;;2.33;1.52;;;17.50;52.70;;;;;;5015523;28;20086;-77
2023/10/17 13:36:20;;;;;;;5.45;1.83;;;17.60;52.70;;;;;;5012377;28;20445;-79
2023/10/17 13:38:46;;;;;;;2.67;1.70;;;17.70;52.80;;;;;;5019067;28;20097;-78
2023/10/17 13:41:15;;;;;;;2.20;1.63;;;17.70;52.50;;;;;;5018945;28;20056;-78
2023/10/17 13:43:45;;;;;;;2.72;1.63;;;17.80;52.50;;;;;;5021829;28;20489;-78
2023/10/17 13:46:12;;;;;;;3.38;1.70;;;17.80;52.40;;;;;;5019233;28;20037;-79
2023/10/17 13:48:40;;;;;;;4.53;1.50;;;17.90;52.40;;;;;;5025646;28;20373;-79
2023/10/17 13:51:09;;;;;;;2.35;1.38;;;17.90;52.80;;;;;;5048868;28;20314;-78
2023/10/17 13:53:36;;;;;;;2.42;1.42;;;17.90;52.00;;;;;;5020876;28;20395;-78
2023/10/17 13:56:07;;;;;;;2.78;1.63;;;17.90;51.90;;;;;;5017221;28;20519;-78
2023/10/17 13:58:38;;;;;;;7.45;1.75;;;18.00;51.90;;;;;;5018630;28;20056;-78
2023/10/17 14:01:27;;;;;;;3.00;1.25;;;18.00;51.80;;;;;;5018767;28;20405;-78
2023/10/17 14:03:51;;;;;;;5.18;1.40;;;17.90;52.20;;;;;;5015551;28;20057;-79
2023/10/17 14:06:17;;;;;;;3.13;1.65;;;18.00;51.60;;;;;;5013547;28;20207;-79
2023/10/17 14:08:43;;;;;;;3.88;1.27;;;18.00;51.50;;;;;;5020634;28;20426;-79
2023/10/17 14:11:17;;;;;;;5.75;1.73;;;18.00;51.40;;;;;;5020533;28;20037;-79
2023/10/17 14:13:49;;;;;;;3.40;1.45;;;18.10;51.50;;;;;;5012733;28;20662;-80
2023/10/17 14:16:16;;;;;;;1.90;1.40;;;18.00;51.10;;;;;;5018618;28;20443;-79
2023/10/17 14:21:39;;;;;;;3.65;2.05;;;18.00;51.00;;;;;;5018305;28;20033;-79
2023/10/17 14:24:14;;;;;;;2.92;1.70;;;18.00;50.90;;;;;;5021452;28;20060;-78
2023/10/17 14:26:40;;;;;;;3.30;1.67;;;18.00;50.90;;;;;;5018735;28;20107;-80
2023/10/17 14:29:08;;;;;;;3.88;1.20;;;17.90;50.70;;;;;;5016753;28;20256;-79
2023/10/17 14:31:36;;;;;;;2.95;1.50;;;17.90;50.50;;;;;;5021251;28;20565;-80
2023/10/17 14:34:02;;;;;;;3.42;1.80;;;17.90;50.60;;;;;;5013254;28;20025;-79
2023/10/17 14:36:28;;;;;;;2.90;1.50;;;17.90;50.50;;;;;;5016300;28;20057;-78
2023/10/17 14:38:55;;;;;;;2.33;1.17;;;17.80;50.20;;;;;;5020699;28;20136;-78
2023/10/17 14:41:23;;;;;;;2.47;1.30;;;17.80;50.10;;;;;;5024929;28;20205;-78
2023/10/17 14:43:51;;;;;;;2.45;1.38;;;17.80;50.20;;;;;;5016963;28;20351;-78
2023/10/17 14:46:21;;;;;;;3.38;1.55;;;17.80;50.10;;;;;;5019051;28;20033;-77
2023/10/17 14:48:47;;;;;;;5.82;1.52;;;17.70;49.90;;;;;;5017408;28;20083;-77
2023/10/17 14:51:14;;;;;;;3.60;1.50;;;17.70;50.00;;;;;;5020744;28;20044;-77
2023/10/17 14:53:46;;;;;;;2.53;1.30;;;17.70;50.20;;;;;;5015679;28;20034;-77
2023/10/17 14:56:12;;;;;;;2.73;1.20;;;17.80;50.50;;;;;;5012690;28;20036;-77
2023/10/17 14:58:46;;;;;;;4.15;1.30;;;17.80;50.50;;;;;;5022109;28;20033;-77
2023/10/17 15:01:12;;;;;;;2.58;1.20;;;17.70;50.10;;;;;;5019133;28;20033;-77
2023/10/17 15:03:38;;;;;;;3.05;1.25;;;17.70;50.10;;;;;;5012348;28;20018;-78
2023/10/17 15:06:06;;;;;;;1.35;1.00;;;17.70;50.10;;;;;;5008161;28;20460;-78
2023/10/17 15:08:32;;;;;;;3.25;1.52;;;17.70;50.10;;;;;;5012780;28;20060;-77
2023/10/17 15:11:10;;;;;;;4.07;1.48;;;17.70;50.10;;;;;;5020029;28;20041;-77
2023/10/17 15:13:37;;;;;;;2.92;1.92;;;17.60;49.80;;;;;;5012907;28;20132;-77
2023/10/17 15:16:16;;;;;;;6.68;1.23;;;17.60;50.00;;;;;;5009817;28;20108;-77
2023/10/17 15:18:43;;;;;;;5.13;1.58;;;17.50;49.60;;;;;;5023963;28;20389;-77
2023/10/17 15:21:09;;;;;;;4.88;1.23;;;17.50;49.80;;;;;;5020025;28;20030;-77
2023/10/17 15:23:41;;;;;;;3.00;1.63;;;17.50;49.80;;;;;;5020191;28;20416;-77
2023/10/17 15:26:10;;;;;;;2.67;1.20;;;17.50;49.80;;;;;;5010840;28;20045;-76
2023/10/17 15:28:37;;;;;;;3.17;2.00;;;17.40;49.70;;;;;;5017626;28;20072;-77
2023/10/17 15:31:09;;;;;;;1.73;1.10;;;17.40;49.80;;;;;;5011162;28;20034;-78
2023/10/17 15:33:39;;;;;;;2.60;1.30;;;17.40;49.80;;;;;;5020754;28;20473;-78